createdAt,value
2019-03-31T00:01:44.911Z,98672.44
2019-03-31T00:04:20.599Z,98672.00
2019-03-31T00:06:55.558Z,98665.29
2019-03-31T00:09:29.358Z,98668.66
2019-03-31T00:12:04.298Z,98665.93
2019-03-31T00:14:38.881Z,98667.98
2019-03-31T00:17:13.265Z,98672.20
2019-03-31T00:19:48.828Z,98666.16
2019-03-31T00:22:23.680Z,98663.64
2019-03-31T00:24:58.029Z,98671.03
2019-03-31T00:27:32.744Z,98669.57
2019-03-31T00:30:07.977Z,98662.95
2019-03-31T00:32:42.226Z,98662.86
2019-03-31T00:35:16.588Z,98663.53
2019-03-31T00:37:51.053Z,98664.39
2019-03-31T00:40:25.607Z,98667.14
2019-03-31T00:42:59.715Z,98664.72
2019-03-31T00:45:34.134Z,98670.88
2019-03-31T00:48:07.650Z,98664.20
2019-03-31T00:50:41.912Z,98664.05
2019-03-31T00:53:16.275Z,98666.59
2019-03-31T00:55:51.542Z,98667.23
2019-03-31T00:58:26.305Z,98665.82
2019-03-31T01:01:20.080Z,98666.18
2019-03-31T01:03:54.261Z,98663.31
2019-03-31T01:06:29.504Z,98666.13
2019-03-31T01:09:08.039Z,98664.16
2019-03-31T01:11:42.172Z,98661.78
2019-03-31T01:14:15.796Z,98663.55
2019-03-31T01:16:48.671Z,98663.45
2019-03-31T01:19:22.897Z,98658.84
2019-03-31T01:21:57.310Z,98656.22
2019-03-31T01:24:31.967Z,98655.81
2019-03-31T01:27:09.616Z,98650.66
2019-03-31T01:29:44.057Z,98654.91
2019-03-31T01:32:17.965Z,98657.37
2019-03-31T01:34:52.844Z,98657.63
2019-03-31T01:37:26.875Z,98648.54
2019-03-31T01:40:01.328Z,98654.48
2019-03-31T01:42:35.706Z,98660.78
2019-03-31T01:45:10.288Z,98652.78
2019-03-31T01:47:44.132Z,98657.11
2019-03-31T01:50:18.703Z,98654.72
2019-03-31T01:52:52.650Z,98647.14
2019-03-31T01:55:26.918Z,98648.09
2019-03-31T01:58:01.062Z,98649.77
2019-03-31T02:00:41.354Z,98640.97
2019-03-31T02:03:16.647Z,98642.84
2019-03-31T02:05:50.140Z,98639.42
2019-03-31T02:08:24.292Z,98643.59
2019-03-31T02:11:09.188Z,98640.77
2019-03-31T02:13:44.142Z,98643.98
2019-03-31T02:16:18.726Z,98644.67
2019-03-31T02:18:53.438Z,98640.47
2019-03-31T02:21:28.045Z,98639.35
2019-03-31T02:24:02.290Z,98638.27
2019-03-31T02:26:36.925Z,98642.75
2019-03-31T02:29:12.335Z,98647.34
2019-03-31T02:31:46.476Z,98644.62
2019-03-31T02:34:20.040Z,98643.69
2019-03-31T02:36:53.256Z,98643.25
2019-03-31T02:39:27.428Z,98643.42
2019-03-31T02:42:01.922Z,98638.47
2019-03-31T02:44:37.123Z,98647.11
2019-03-31T02:47:11.833Z,98645.04
2019-03-31T02:49:46.899Z,98647.45
2019-03-31T02:52:21.215Z,98661.68
2019-03-31T02:54:55.948Z,98661.28
2019-03-31T02:57:30.811Z,98659.73
2019-03-31T03:00:05.971Z,98668.09
2019-03-31T03:02:42.877Z,98665.64
2019-03-31T03:05:20.391Z,98664.44
2019-03-31T03:07:57.325Z,98655.27
2019-03-31T03:10:33.669Z,98661.16
2019-03-31T03:13:12.863Z,98659.11
2019-03-31T03:16:27.825Z,98659.00
2019-03-31T03:19:03.530Z,98655.75
2019-03-31T03:21:39.224Z,98654.80
2019-03-31T03:24:13.877Z,98659.86
2019-03-31T03:26:48.374Z,98656.66
2019-03-31T03:29:22.222Z,98655.93
2019-03-31T03:31:56.241Z,98649.18
2019-03-31T03:34:30.118Z,98654.79
2019-03-31T03:37:06.063Z,98650.86
2019-03-31T03:39:41.445Z,98654.06
2019-03-31T03:42:16.533Z,98649.73
2019-03-31T03:44:50.379Z,98650.13
2019-03-31T03:47:25.686Z,98645.63
2019-03-31T03:50:00.647Z,98646.27
2019-03-31T03:52:37.711Z,98651.27
2019-03-31T03:55:15.242Z,98644.86
2019-03-31T03:57:51.183Z,98648.98
2019-03-31T04:00:30.950Z,98644.32
2019-03-31T04:03:08.279Z,98643.73
2019-03-31T04:05:43.417Z,98638.99
2019-03-31T04:08:26.178Z,98647.48
2019-03-31T04:11:21.137Z,98647.35
2019-03-31T04:13:52.800Z,98644.86
2019-03-31T04:16:24.660Z,98641.94
2019-03-31T04:18:59.372Z,98648.48
2019-03-31T04:21:33.641Z,98643.73
2019-03-31T04:24:08.620Z,98641.48
2019-03-31T04:26:43.464Z,98638.87
2019-03-31T04:29:17.655Z,98645.95
2019-03-31T04:31:52.076Z,98643.59
2019-03-31T04:34:27.031Z,98639.30
2019-03-31T04:37:01.543Z,98641.91
2019-03-31T04:40:18.688Z,98643.49
2019-03-31T04:46:00.423Z,98650.38
2019-03-31T04:48:35.918Z,98648.53
2019-03-31T04:51:11.483Z,98654.86
2019-03-31T04:53:45.329Z,98652.05
2019-03-31T04:56:20.047Z,98651.87
2019-03-31T04:58:54.572Z,98657.29
2019-03-31T05:01:29.355Z,98659.70
2019-03-31T05:04:05.368Z,98654.64
2019-03-31T05:06:40.819Z,98652.02
2019-03-31T05:09:15.557Z,98653.72
2019-03-31T05:11:50.046Z,98654.20
2019-03-31T05:14:25.101Z,98657.95
2019-03-31T05:17:00.271Z,98656.48
2019-03-31T05:19:35.005Z,98658.58
2019-03-31T05:22:08.174Z,98654.92
2019-03-31T05:24:42.777Z,98660.39
2019-03-31T05:27:16.894Z,98665.06
2019-03-31T05:29:51.453Z,98667.20
2019-03-31T05:32:26.824Z,98666.84
2019-03-31T05:35:02.366Z,98668.88
2019-03-31T05:37:50.215Z,98670.01
2019-03-31T05:40:13.017Z,98673.50
2019-03-31T05:42:47.701Z,98677.77
2019-03-31T05:45:22.589Z,98670.77
2019-03-31T05:47:56.604Z,98678.81
2019-03-31T05:50:31.319Z,98685.20
2019-03-31T05:53:05.011Z,98683.55
2019-03-31T05:55:40.808Z,98689.64
2019-03-31T05:58:15.520Z,98678.50
2019-03-31T06:00:50.559Z,98685.66
2019-03-31T06:03:24.706Z,98688.28
2019-03-31T06:06:11.882Z,98689.44
2019-03-31T06:08:49.272Z,98691.87
2019-03-31T06:11:24.345Z,98686.25
2019-03-31T06:14:00.665Z,98688.61
2019-03-31T06:16:36.915Z,98694.69
2019-03-31T06:19:14.040Z,98694.84
2019-03-31T06:21:52.372Z,98695.23
2019-03-31T06:24:26.890Z,98701.73
2019-03-31T06:27:00.648Z,98696.30
2019-03-31T06:29:36.319Z,98703.67
2019-03-31T06:32:10.430Z,98699.63
2019-03-31T06:34:47.739Z,98705.70
2019-03-31T06:37:21.021Z,98699.42
2019-03-31T06:39:56.922Z,98700.84
2019-03-31T06:42:31.898Z,98696.75
2019-03-31T06:45:06.131Z,98696.34
2019-03-31T06:47:41.226Z,98702.58
2019-03-31T06:50:16.170Z,98704.26
2019-03-31T06:52:50.462Z,98699.56
2019-03-31T06:55:25.610Z,98698.80
2019-03-31T06:58:01.607Z,98701.78
2019-03-31T07:00:37.441Z,98700.38
2019-03-31T07:03:14.406Z,98697.36
2019-03-31T07:05:48.672Z,98697.97
2019-03-31T07:08:23.288Z,98698.23
2019-03-31T07:10:58.195Z,98699.20
2019-03-31T07:13:35.228Z,98699.24
2019-03-31T07:16:10.273Z,98698.13
2019-03-31T07:18:45.759Z,98702.70
2019-03-31T07:21:20.531Z,98704.41
2019-03-31T07:23:55.683Z,98702.61
2019-03-31T07:26:30.338Z,98691.95
2019-03-31T07:29:08.238Z,98691.95
2019-03-31T07:31:43.181Z,98697.81
2019-03-31T07:34:18.592Z,98700.56
2019-03-31T07:36:53.277Z,98700.64
2019-03-31T07:39:29.566Z,98703.30
2019-03-31T07:42:06.868Z,98701.89
2019-03-31T07:44:43.670Z,98701.22
2019-03-31T07:47:18.330Z,98699.92
2019-03-31T07:49:52.636Z,98702.13
2019-03-31T07:52:27.984Z,98704.50
2019-03-31T07:55:03.018Z,98702.56
2019-03-31T07:57:37.531Z,98699.64
2019-03-31T08:00:15.375Z,98704.89
2019-03-31T08:02:50.099Z,98708.77
2019-03-31T08:05:32.839Z,98701.69
2019-03-31T08:08:01.053Z,98712.00
2019-03-31T08:10:37.112Z,98709.08
2019-03-31T08:13:12.311Z,98704.63
2019-03-31T08:15:50.789Z,98698.59
2019-03-31T08:18:31.237Z,98703.72
2019-03-31T08:21:05.746Z,98695.41
2019-03-31T08:23:40.715Z,98694.42
2019-03-31T08:26:15.619Z,98694.76
2019-03-31T08:28:50.307Z,98694.02
2019-03-31T08:31:26.512Z,98695.20
2019-03-31T08:34:00.408Z,98698.68
2019-03-31T08:36:35.445Z,98694.45
2019-03-31T08:39:12.134Z,98697.63
2019-03-31T08:41:46.010Z,98695.80
2019-03-31T08:44:21.761Z,98698.50
2019-03-31T08:46:56.483Z,98696.46
2019-03-31T08:49:32.182Z,98696.20
2019-03-31T08:52:06.633Z,98695.66
2019-03-31T08:54:41.300Z,98697.32
2019-03-31T08:57:17.866Z,98691.90
2019-03-31T08:59:52.397Z,98690.91
2019-03-31T09:02:28.775Z,98691.04
2019-03-31T09:05:02.897Z,98687.15
2019-03-31T09:07:37.082Z,98686.80
2019-03-31T09:10:13.055Z,98679.04
2019-03-31T09:12:48.682Z,98676.36
2019-03-31T09:15:25.377Z,98669.70
2019-03-31T09:17:59.485Z,98677.03
2019-03-31T09:20:34.282Z,98671.66
2019-03-31T09:23:09.154Z,98672.97
2019-03-31T09:25:47.373Z,98669.75
2019-03-31T09:28:21.173Z,98669.74
2019-03-31T09:30:55.597Z,98663.91
2019-03-31T09:33:30.186Z,98661.75
2019-03-31T09:36:15.347Z,98662.79
2019-03-31T09:38:41.195Z,98659.78
2019-03-31T09:41:15.091Z,98651.45
2019-03-31T09:43:49.720Z,98656.66
2019-03-31T09:46:23.918Z,98653.92
2019-03-31T09:48:59.102Z,98654.22
2019-03-31T09:51:33.810Z,98654.02
2019-03-31T09:54:11.077Z,98658.48
2019-03-31T09:56:45.331Z,98645.30
2019-03-31T09:59:19.199Z,98643.98
2019-03-31T10:01:53.821Z,98647.03
2019-03-31T10:04:28.316Z,98643.22
2019-03-31T10:07:04.019Z,98641.73
2019-03-31T10:09:38.414Z,98640.56
2019-03-31T10:12:13.409Z,98640.77
2019-03-31T10:14:48.840Z,98635.85
2019-03-31T10:17:23.272Z,98631.95
2019-03-31T10:19:57.717Z,98632.77
2019-03-31T10:22:31.595Z,98630.75
2019-03-31T10:25:06.341Z,98621.57
2019-03-31T10:27:41.534Z,98617.25
2019-03-31T10:30:20.580Z,98617.02
2019-03-31T10:32:55.415Z,98617.37
2019-03-31T10:35:30.529Z,98612.02
2019-03-31T10:38:05.110Z,98610.69
2019-03-31T10:40:40.460Z,98618.06
2019-03-31T10:43:15.675Z,98610.08
2019-03-31T10:45:49.991Z,98606.33
2019-03-31T10:48:24.834Z,98602.77
2019-03-31T10:51:00.383Z,98602.92
2019-03-31T10:53:34.718Z,98607.53
2019-03-31T10:56:10.041Z,98600.72
2019-03-31T10:58:46.630Z,98607.72
2019-03-31T11:01:22.129Z,98602.97
2019-03-31T11:03:58.035Z,98600.72
2019-03-31T11:06:32.340Z,98593.16
2019-03-31T11:09:08.814Z,98588.14
2019-03-31T11:11:44.233Z,98592.22
2019-03-31T11:14:18.924Z,98589.55
2019-03-31T11:16:52.872Z,98591.70
2019-03-31T11:19:26.447Z,98580.70
2019-03-31T11:22:28.650Z,98587.86
2019-03-31T11:25:02.608Z,98588.28
2019-03-31T11:27:36.855Z,98580.12
2019-03-31T11:30:12.869Z,98575.22
2019-03-31T11:32:47.791Z,98585.97
2019-03-31T11:35:35.095Z,98573.08
2019-03-31T11:38:09.332Z,98576.44
2019-03-31T11:40:43.689Z,98574.38
2019-03-31T11:43:17.842Z,98573.25
2019-03-31T11:45:52.022Z,98564.64
2019-03-31T11:48:26.999Z,98569.65
2019-03-31T11:51:01.375Z,98567.64
2019-03-31T11:53:35.899Z,98558.33
2019-03-31T11:56:11.362Z,98570.47
2019-03-31T11:58:45.898Z,98560.86
2019-03-31T12:01:20.328Z,98555.28
2019-03-31T12:03:55.137Z,98561.47
2019-03-31T12:06:30.135Z,98557.30
2019-03-31T12:09:06.164Z,98555.69
2019-03-31T12:11:40.718Z,98556.88
2019-03-31T12:14:14.673Z,98559.45
2019-03-31T12:16:48.208Z,98556.41
2019-03-31T12:19:22.633Z,98552.15
2019-03-31T12:21:56.929Z,98546.52
2019-03-31T12:24:31.947Z,98543.00
2019-03-31T12:27:06.435Z,98543.73
2019-03-31T12:29:41.808Z,98540.89
2019-03-31T12:32:16.014Z,98533.41
2019-03-31T12:34:49.821Z,98530.55
2019-03-31T12:37:25.233Z,98534.91
2019-03-31T12:39:59.785Z,98526.90
2019-03-31T12:42:33.335Z,98542.19
2019-03-31T12:45:07.356Z,98526.23
2019-03-31T12:47:40.848Z,98535.14
2019-03-31T12:50:16.194Z,98520.38
2019-03-31T12:52:51.232Z,98523.95
2019-03-31T12:55:27.762Z,98514.67
2019-03-31T12:58:01.950Z,98517.30
2019-03-31T13:00:36.910Z,98519.84
2019-03-31T13:03:10.966Z,98512.46
2019-03-31T13:05:47.781Z,98511.86
2019-03-31T13:08:21.852Z,98516.42
2019-03-31T13:10:56.784Z,98502.75
2019-03-31T13:13:33.710Z,98506.19
2019-03-31T13:16:07.992Z,98507.45
2019-03-31T13:18:41.638Z,98495.45
2019-03-31T13:21:15.324Z,98503.22
2019-03-31T13:23:50.824Z,98498.91
2019-03-31T13:26:25.674Z,98497.55
2019-03-31T13:29:00.133Z,98498.55
2019-03-31T13:31:37.456Z,98498.38
2019-03-31T13:34:13.033Z,98490.75
2019-03-31T13:36:47.624Z,98480.22
2019-03-31T13:39:21.126Z,98484.55
2019-03-31T13:41:55.160Z,98487.98
2019-03-31T13:44:29.819Z,98483.34
2019-03-31T13:47:04.721Z,98477.39
2019-03-31T13:49:38.776Z,98479.75
2019-03-31T13:52:12.773Z,98475.22
2019-03-31T13:54:46.950Z,98474.44
2019-03-31T13:57:21.749Z,98473.51
2019-03-31T13:59:56.672Z,98472.73
2019-03-31T14:02:31.880Z,98469.53
2019-03-31T14:05:07.139Z,98467.98
2019-03-31T14:07:42.662Z,98467.44
2019-03-31T14:10:17.395Z,98471.95
2019-03-31T14:12:51.770Z,98468.16
2019-03-31T14:15:27.855Z,98468.45
2019-03-31T14:18:02.286Z,98466.36
2019-03-31T14:20:36.543Z,98464.89
2019-03-31T14:23:14.167Z,98463.52
2019-03-31T14:25:49.747Z,98450.12
2019-03-31T14:28:27.852Z,98454.37
2019-03-31T14:31:01.553Z,98461.88
2019-03-31T14:33:35.564Z,98458.93
2019-03-31T14:36:09.134Z,98452.67
2019-03-31T14:38:47.284Z,98451.81
2019-03-31T14:41:21.758Z,98455.95
2019-03-31T14:43:55.374Z,98446.70
2019-03-31T14:46:29.642Z,98440.27
2019-03-31T14:49:05.841Z,98438.60
2019-03-31T14:51:42.156Z,98443.63
2019-03-31T14:54:18.058Z,98437.36
2019-03-31T14:56:52.200Z,98429.46
2019-03-31T14:59:28.136Z,98430.63
2019-03-31T15:02:04.902Z,98430.27
2019-03-31T15:04:40.150Z,98432.31
2019-03-31T15:07:14.831Z,98425.36
2019-03-31T15:09:49.565Z,98425.47
2019-03-31T15:12:23.841Z,98435.11
2019-03-31T15:14:59.778Z,98423.73
2019-03-31T15:17:34.173Z,98425.11
2019-03-31T15:20:09.893Z,98428.63
2019-03-31T15:22:44.668Z,98427.08
2019-03-31T15:25:19.777Z,98429.93
2019-03-31T15:27:58.508Z,98427.40
2019-03-31T15:30:33.248Z,98423.32
2019-03-31T15:33:07.446Z,98431.58
2019-03-31T15:35:41.784Z,98444.27
2019-03-31T15:38:16.966Z,98451.88
2019-03-31T15:40:51.022Z,98446.75
2019-03-31T15:43:25.393Z,98450.41
2019-03-31T15:46:01.050Z,98443.81
2019-03-31T15:48:36.234Z,98451.06
2019-03-31T15:51:10.212Z,98453.27
2019-03-31T15:53:47.513Z,98455.14
2019-03-31T15:56:21.734Z,98454.17
2019-03-31T15:58:55.911Z,98462.28
2019-03-31T16:01:29.352Z,98459.13
2019-03-31T16:04:03.308Z,98459.97
2019-03-31T16:06:36.735Z,98464.62
2019-03-31T16:09:22.897Z,98464.41
2019-03-31T16:11:53.533Z,98463.92
2019-03-31T16:14:20.575Z,98460.02
2019-03-31T16:16:53.175Z,98461.27
2019-03-31T16:19:25.944Z,98457.09
2019-03-31T16:21:59.746Z,98468.91
2019-03-31T16:24:39.431Z,98469.24
2019-03-31T16:27:12.981Z,98472.06
2019-03-31T16:29:46.231Z,98470.14
2019-03-31T16:32:19.455Z,98466.38
2019-03-31T16:34:52.983Z,98472.75
2019-03-31T16:37:27.294Z,98473.05
2019-03-31T16:40:02.471Z,98476.21
2019-03-31T16:42:35.887Z,98474.29
2019-03-31T16:45:09.262Z,98485.30
2019-03-31T16:47:42.643Z,98475.36
2019-03-31T16:50:16.223Z,98476.42
2019-03-31T16:52:52.496Z,98476.42
2019-03-31T16:55:24.553Z,98469.48
2019-03-31T16:57:57.571Z,98479.41
2019-03-31T17:00:31.546Z,98480.37
2019-03-31T17:03:05.303Z,98485.98
2019-03-31T17:05:42.576Z,98485.52
2019-03-31T17:08:16.585Z,98486.78
2019-03-31T17:10:49.975Z,98487.68
2019-03-31T17:13:31.039Z,98497.28
2019-03-31T17:16:05.150Z,98499.26
2019-03-31T17:18:38.863Z,98502.00
2019-03-31T17:21:12.494Z,98507.66
2019-03-31T17:23:48.558Z,98515.11
2019-03-31T17:26:22.036Z,98507.56
2019-03-31T17:28:55.640Z,98512.73
2019-03-31T17:31:29.227Z,98511.73
2019-03-31T17:34:02.745Z,98514.68
2019-03-31T17:36:35.423Z,98522.97
2019-03-31T17:39:09.754Z,98524.75
2019-03-31T17:41:44.163Z,98529.73
2019-03-31T17:44:18.040Z,98532.14
2019-03-31T17:46:52.353Z,98535.38
2019-03-31T17:49:26.595Z,98538.75
2019-03-31T17:52:01.189Z,98538.32
2019-03-31T17:54:35.262Z,98537.94
2019-03-31T17:57:08.616Z,98543.88
2019-03-31T17:59:41.596Z,98551.50
2019-03-31T18:02:14.852Z,98550.36
2019-03-31T18:04:48.290Z,98551.05
2019-03-31T18:07:21.692Z,98556.23
2019-03-31T18:09:55.104Z,98559.80
2019-03-31T18:12:28.486Z,98562.13
2019-03-31T18:15:02.388Z,98572.50
2019-03-31T18:17:35.429Z,98574.84
2019-03-31T18:20:09.832Z,98577.72
2019-03-31T18:22:43.310Z,98582.87
2019-03-31T18:25:17.586Z,98582.89
2019-03-31T18:27:52.041Z,98592.22
2019-03-31T18:30:25.197Z,98589.89
2019-03-31T18:32:58.106Z,98601.06
2019-03-31T18:35:31.457Z,98606.21
2019-03-31T18:38:04.704Z,98607.48
2019-03-31T18:40:38.059Z,98611.60
2019-03-31T18:43:11.991Z,98618.79
2019-03-31T18:45:46.496Z,98629.34
2019-03-31T18:48:20.203Z,98634.43
2019-03-31T18:50:53.690Z,98641.47
2019-03-31T18:53:38.980Z,98651.45
2019-03-31T18:56:32.027Z,98645.85
2019-03-31T18:59:22.515Z,98651.98
2019-03-31T19:02:13.465Z,98649.91
2019-03-31T19:05:02.319Z,98663.34
2019-03-31T19:07:53.542Z,98658.42
2019-03-31T19:10:49.582Z,98661.47
2019-03-31T19:13:31.837Z,98674.09
2019-03-31T19:16:24.130Z,98680.46
2019-03-31T19:19:06.773Z,98682.67
2019-03-31T19:21:50.937Z,98689.48
2019-03-31T19:24:41.257Z,98687.02
2019-03-31T19:27:40.015Z,98692.11
2019-03-31T19:30:42.086Z,98700.48
2019-03-31T19:33:52.355Z,98708.11
2019-03-31T19:36:38.284Z,98704.98
2019-03-31T19:39:30.094Z,98703.08
2019-03-31T19:42:22.032Z,98714.69
2019-03-31T19:45:13.878Z,98720.89
2019-03-31T19:47:58.786Z,98736.45
2019-03-31T19:50:54.367Z,98734.31
2019-03-31T19:53:46.673Z,98739.20
2019-03-31T19:56:38.050Z,98736.96
2019-03-31T19:59:27.243Z,98744.23
2019-03-31T20:02:15.390Z,98744.66
2019-03-31T20:05:05.968Z,98740.67
2019-03-31T20:07:51.591Z,98751.50
2019-03-31T20:10:46.681Z,98742.78
2019-03-31T20:13:38.583Z,98748.63
2019-03-31T20:16:33.631Z,98748.54
2019-03-31T20:19:23.971Z,98752.52
2019-03-31T20:22:09.956Z,98759.08
2019-03-31T20:25:07.273Z,98759.31
2019-03-31T20:27:59.704Z,98765.81
2019-03-31T20:30:50.961Z,98771.05
2019-03-31T20:33:40.607Z,98770.97
2019-03-31T20:36:32.880Z,98764.81
2019-03-31T20:39:17.660Z,98769.31
2019-03-31T20:42:08.300Z,98771.25
2019-03-31T20:44:44.637Z,98769.47
2019-03-31T20:47:17.413Z,98772.23
2019-03-31T20:49:50.587Z,98769.50
2019-03-31T20:52:22.727Z,98772.36
2019-03-31T20:54:56.101Z,98782.27
2019-03-31T20:57:30.153Z,98777.66
2019-03-31T21:00:03.578Z,98775.66
2019-03-31T21:02:35.308Z,98781.13
2019-03-31T21:05:08.016Z,98783.06
2019-03-31T21:07:41.493Z,98790.50
2019-03-31T21:10:15.971Z,98788.36
2019-03-31T21:12:49.055Z,98791.73
2019-03-31T21:15:47.615Z,98793.84
2019-03-31T21:18:23.799Z,98799.39
2019-03-31T21:21:21.667Z,98799.52
2019-03-31T21:24:09.237Z,98801.00
2019-03-31T21:27:09.183Z,98805.23
2019-03-31T21:29:44.902Z,98805.61
2019-03-31T21:32:20.301Z,98807.05
2019-03-31T21:34:54.679Z,98807.20
2019-03-31T21:37:28.385Z,98817.59
2019-03-31T21:40:01.486Z,98817.15
2019-03-31T21:42:34.350Z,98818.47
2019-03-31T21:45:07.733Z,98819.31
2019-03-31T21:47:41.582Z,98822.34
2019-03-31T21:50:14.803Z,98827.87
2019-03-31T21:52:48.235Z,98822.53
2019-03-31T21:55:21.825Z,98818.14
2019-03-31T21:57:55.396Z,98824.55
2019-03-31T22:00:45.951Z,98824.65
2019-03-31T22:03:19.631Z,98827.30
2019-03-31T22:05:53.097Z,98819.16
2019-03-31T22:08:24.526Z,98822.64
2019-03-31T22:10:58.246Z,98828.55
2019-03-31T22:13:32.306Z,98823.97
2019-03-31T22:16:06.616Z,98825.43
2019-03-31T22:18:42.177Z,98824.00
2019-03-31T22:21:16.928Z,98820.98
2019-03-31T22:23:57.857Z,98819.55
2019-03-31T22:26:26.306Z,98820.25
2019-03-31T22:29:00.149Z,98816.54
2019-03-31T22:31:33.781Z,98816.66
2019-03-31T22:34:05.214Z,98808.99
2019-03-31T22:36:37.876Z,98808.13
2019-03-31T22:39:11.136Z,98804.88
2019-03-31T22:41:43.132Z,98806.70
2019-03-31T22:44:15.977Z,98808.85
2019-03-31T22:46:54.074Z,98802.01
2019-03-31T22:49:21.575Z,98799.61
2019-03-31T22:51:56.454Z,98797.09
2019-03-31T22:54:30.402Z,98799.38
2019-03-31T22:57:04.157Z,98797.09
2019-03-31T22:59:37.197Z,98794.91
2019-03-31T23:02:10.267Z,98796.23
2019-03-31T23:04:43.503Z,98795.84
2019-03-31T23:07:15.844Z,98803.14
2019-03-31T23:09:48.289Z,98794.53
2019-03-31T23:12:21.657Z,98797.28
2019-03-31T23:14:55.436Z,98795.84
2019-03-31T23:17:28.684Z,98797.75
2019-03-31T23:20:04.743Z,98799.41
2019-03-31T23:22:38.412Z,98793.91
2019-03-31T23:25:11.345Z,98797.27
2019-03-31T23:27:44.114Z,98794.30
2019-03-31T23:30:16.638Z,98792.58
2019-03-31T23:32:50.317Z,98792.92
2019-03-31T23:35:24.330Z,98791.02
2019-03-31T23:37:58.123Z,98786.08
2019-03-31T23:40:31.689Z,98790.86
2019-03-31T23:43:03.087Z,98785.18
2019-03-31T23:45:35.967Z,98787.92
2019-03-31T23:48:07.408Z,98786.09
2019-03-31T23:50:40.841Z,98786.67
2019-03-31T23:53:14.422Z,98787.00
2019-03-31T23:55:46.477Z,98787.30
2019-03-31T23:58:19.988Z,98780.98
